sensor_id;sensor_type;location;lat;lon;timestamp;pressure;altitude;pressure_sealevel;temperature;humidity
34586;BME280;20816;50.950;11.108;2024-03-22T00:01:58;99053.03;;;6.72;100.00
34586;BME280;20816;50.950;11.108;2024-03-22T00:04:25;99053.00;;;6.66;100.00
34586;BME280;20816;50.950;11.108;2024-03-22T00:06:51;99046.06;;;6.64;100.00
34586;BME280;20816;50.950;11.108;2024-03-22T00:09:17;99041.69;;;6.63;100.00
34586;BME280;20816;50.950;11.108;2024-03-22T00:11:43;99037.34;;;6.62;100.00
34586;BME280;20816;50.950;11.108;2024-03-22T00:14:10;99034.75;;;6.62;100.00
34586;BME280;20816;50.950;11.108;2024-03-22T00:16:35;99029.53;;;6.68;100.00
34586;BME280;20816;50.950;11.108;2024-03-22T00:19:02;99020.81;;;6.69;100.00
34586;BME280;20816;50.950;11.108;2024-03-22T00:21:28;99018.19;;;6.70;100.00
34586;BME280;20816;50.950;11.108;2024-03-22T00:23:55;99015.59;;;6.72;100.00
34586;BME280;20816;50.950;11.108;2024-03-22T00:26:21;99008.63;;;6.62;100.00
34586;BME280;20816;50.950;11.108;2024-03-22T00:28:47;99010.38;;;6.69;100.00
34586;BME280;20816;50.950;11.108;2024-03-22T00:31:12;99014.69;;;6.67;100.00
34586;BME280;20816;50.950;11.108;2024-03-22T00:33:38;99006.88;;;6.71;100.00
34586;BME280;20816;50.950;11.108;2024-03-22T00:36:04;99002.50;;;6.75;100.00
34586;BME280;20816;50.950;11.108;2024-03-22T00:38:30;98992.94;;;6.74;100.00
34586;BME280;20816;50.950;11.108;2024-03-22T00:40:55;98992.94;;;6.74;100.00
34586;BME280;20816;50.950;11.108;2024-03-22T00:43:21;98987.72;;;6.77;100.00
34586;BME280;20816;50.950;11.108;2024-03-22T00:45:47;98985.97;;;6.73;100.00
34586;BME280;20816;50.950;11.108;2024-03-22T00:48:13;98973.78;;;6.78;100.00
34586;BME280;20816;50.950;11.108;2024-03-22T00:50:39;98972.03;;;6.74;100.00
34586;BME280;20816;50.950;11.108;2024-03-22T00:53:04;98972.03;;;6.82;100.00
34586;BME280;20816;50.950;11.108;2024-03-22T00:55:31;98966.78;;;6.91;100.00
34586;BME280;20816;50.950;11.108;2024-03-22T00:57:57;98958.09;;;6.89;100.00
34586;BME280;20816;50.950;11.108;2024-03-22T01:00:23;98958.97;;;6.91;100.00
34586;BME280;20816;50.950;11.108;2024-03-22T01:02:49;98951.13;;;6.95;100.00
34586;BME280;20816;50.950;11.108;2024-03-22T01:05:16;98953.75;;;6.92;100.00
34586;BME280;20816;50.950;11.108;2024-03-22T01:07:42;98950.25;;;6.93;100.00
34586;BME280;20816;50.950;11.108;2024-03-22T01:10:08;98946.78;;;6.85;100.00
34586;BME280;20816;50.950;11.108;2024-03-22T01:12:33;98950.28;;;6.80;100.00
34586;BME280;20816;50.950;11.108;2024-03-22T01:14:59;98945.94;;;6.71;100.00
34586;BME280;20816;50.950;11.108;2024-03-22T01:17:25;98940.69;;;6.74;100.00
34586;BME280;20816;50.950;11.108;2024-03-22T01:19:51;98938.06;;;6.80;100.00
34586;BME280;20816;50.950;11.108;2024-03-22T01:22:17;98931.97;;;6.90;99.73
34586;BME280;20816;50.950;11.108;2024-03-22T01:24:44;98922.38;;;6.97;99.16
34586;BME280;20816;50.950;11.108;2024-03-22T01:27:10;98933.72;;;7.00;98.71
34586;BME280;20816;50.950;11.108;2024-03-22T01:29:36;98924.97;;;7.05;98.09
34586;BME280;20816;50.950;11.108;2024-03-22T01:32:02;98921.47;;;7.10;97.89
34586;BME280;20816;50.950;11.108;2024-03-22T01:34:28;98922.31;;;7.20;97.75
34586;BME280;20816;50.950;11.108;2024-03-22T01:36:53;98912.72;;;7.23;96.90
34586;BME280;20816;50.950;11.108;2024-03-22T01:39:20;98912.72;;;7.22;96.63
34586;BME280;20816;50.950;11.108;2024-03-22T01:41:50;98917.97;;;7.19;97.14
34586;BME280;20816;50.950;11.108;2024-03-22T01:44:16;98910.13;;;7.25;96.85
34586;BME280;20816;50.950;11.108;2024-03-22T01:46:43;98910.09;;;7.22;96.78
34586;BME280;20816;50.950;11.108;2024-03-22T01:49:11;98892.66;;;7.33;96.83
34586;BME280;20816;50.950;11.108;2024-03-22T01:51:39;98897.88;;;7.33;96.71
34586;BME280;20816;50.950;11.108;2024-03-22T01:54:08;98891.78;;;7.34;96.67
34586;BME280;20816;50.950;11.108;2024-03-22T01:56:36;98894.38;;;7.32;96.81
34586;BME280;20816;50.950;11.108;2024-03-22T01:59:03;98890.88;;;7.32;96.48
34586;BME280;20816;50.950;11.108;2024-03-22T02:01:29;98883.03;;;7.35;96.77
34586;BME280;20816;50.950;11.108;2024-03-22T02:03:55;98876.91;;;7.41;96.74
34586;BME280;20816;50.950;11.108;2024-03-22T02:06:20;98864.72;;;7.38;96.82
34586;BME280;20816;50.950;11.108;2024-03-22T02:08:46;98867.31;;;7.43;96.79
34586;BME280;20816;50.950;11.108;2024-03-22T02:11:12;98872.50;;;7.47;97.15
34586;BME280;20816;50.950;11.108;2024-03-22T02:13:37;98871.59;;;7.54;96.66
34586;BME280;20816;50.950;11.108;2024-03-22T02:16:03;98865.56;;;7.45;97.18
34586;BME280;20816;50.950;11.108;2024-03-22T02:18:29;98862.06;;;7.47;96.54
34586;BME280;20816;50.950;11.108;2024-03-22T02:20:56;98869.09;;;7.36;97.35
34586;BME280;20816;50.950;11.108;2024-03-22T02:23:33;98868.22;;;7.31;97.81
34586;BME280;20816;50.950;11.108;2024-03-22T02:26:00;98869.13;;;7.24;98.38
34586;BME280;20816;50.950;11.108;2024-03-22T02:28:26;98862.19;;;7.15;98.85
34586;BME280;20816;50.950;11.108;2024-03-22T02:30:51;98866.59;;;7.06;98.70
34586;BME280;20816;50.950;11.108;2024-03-22T02:33:17;98871.00;;;6.93;99.88
34586;BME280;20816;50.950;11.108;2024-03-22T02:35:46;98870.16;;;6.85;100.00
34586;BME280;20816;50.950;11.108;2024-03-22T02:38:12;98873.63;;;6.82;100.00
34586;BME280;20816;50.950;11.108;2024-03-22T02:40:37;98862.34;;;6.79;100.00
34586;BME280;20816;50.950;11.108;2024-03-22T02:43:03;98866.69;;;6.78;100.00
34586;BME280;20816;50.950;11.108;2024-03-22T02:45:30;98868.47;;;6.62;100.00
34586;BME280;20816;50.950;11.108;2024-03-22T02:47:56;98865.84;;;6.58;100.00
34586;BME280;20816;50.950;11.108;2024-03-22T02:50:22;98860.63;;;6.49;100.00
34586;BME280;20816;50.950;11.108;2024-03-22T02:52:48;98860.63;;;6.49;100.00
34586;BME280;20816;50.950;11.108;2024-03-22T02:55:14;98865.88;;;6.45;100.00
34586;BME280;20816;50.950;11.108;2024-03-22T02:57:39;98863.25;;;6.41;100.00
34586;BME280;20816;50.950;11.108;2024-03-22T03:00:06;98858.91;;;6.38;100.00
34586;BME280;20816;50.950;11.108;2024-03-22T03:02:33;98860.66;;;6.36;100.00
34586;BME280;20816;50.950;11.108;2024-03-22T03:04:58;98855.41;;;6.35;100.00
34586;BME280;20816;50.950;11.108;2024-03-22T03:07:25;98855.44;;;6.36;100.00
34586;BME280;20816;50.950;11.108;2024-03-22T03:09:51;98845.84;;;6.55;100.00
34586;BME280;20816;50.950;11.108;2024-03-22T03:12:17;98851.03;;;6.57;100.00
34586;BME280;20816;50.950;11.108;2024-03-22T03:14:42;98847.53;;;6.79;100.00
34586;BME280;20816;50.950;11.108;2024-03-22T03:17:08;98844.03;;;6.82;100.00
34586;BME280;20816;50.950;11.108;2024-03-22T03:19:34;98835.22;;;7.07;100.00
34586;BME280;20816;50.950;11.108;2024-03-22T03:21:59;98821.22;;;7.26;100.00
34586;BME280;20816;50.950;11.108;2024-03-22T03:24:25;98818.56;;;7.31;100.00
34586;BME280;20816;50.950;11.108;2024-03-22T03:26:50;98820.25;;;7.38;100.00
34586;BME280;20816;50.950;11.108;2024-03-22T03:29:16;98813.28;;;7.43;100.00
34586;BME280;20816;50.950;11.108;2024-03-22T03:31:42;98804.41;;;7.63;99.57
34586;BME280;20816;50.950;11.108;2024-03-22T03:34:07;98806.09;;;7.74;98.62
34586;BME280;20816;50.950;11.108;2024-03-22T03:36:33;98797.38;;;7.74;98.72
34586;BME280;20816;50.950;11.108;2024-03-22T03:38:58;98799.88;;;7.87;98.29
34586;BME280;20816;50.950;11.108;2024-03-22T03:41:24;98792.81;;;7.97;96.92
34586;BME280;20816;50.950;11.108;2024-03-22T03:43:49;98787.59;;;7.96;97.28
34586;BME280;20816;50.950;11.108;2024-03-22T03:46:15;98787.63;;;7.93;97.96
34586;BME280;20816;50.950;11.108;2024-03-22T03:48:41;98786.78;;;7.92;97.37
34586;BME280;20816;50.950;11.108;2024-03-22T03:51:06;98785.00;;;7.94;97.29
34586;BME280;20816;50.950;11.108;2024-03-22T03:53:32;98783.16;;;8.05;96.68
34586;BME280;20816;50.950;11.108;2024-03-22T03:55:57;98776.16;;;8.06;96.89
34586;BME280;20816;50.950;11.108;2024-03-22T03:58:23;98778.06;;;7.87;98.36
34586;BME280;20816;50.950;11.108;2024-03-22T04:00:48;98770.91;;;8.10;97.70
34586;BME280;20816;50.950;11.108;2024-03-22T04:03:14;98785.72;;;8.11;96.56
34586;BME280;20816;50.950;11.108;2024-03-22T04:05:40;98783.97;;;8.12;97.19
34586;BME280;20816;50.950;11.108;2024-03-22T04:08:05;98783.22;;;7.99;97.64
34586;BME280;20816;50.950;11.108;2024-03-22T04:10:31;98791.97;;;7.98;97.56
34586;BME280;20816;50.950;11.108;2024-03-22T04:12:57;98785.91;;;7.92;98.45
34586;BME280;20816;50.950;11.108;2024-03-22T04:15:23;98778.03;;;7.93;97.73
34586;BME280;20816;50.950;11.108;2024-03-22T04:17:49;98781.53;;;7.92;98.46
34586;BME280;20816;50.950;11.108;2024-03-22T04:20:14;98783.31;;;7.87;98.77
34586;BME280;20816;50.950;11.108;2024-03-22T04:22:40;98779.81;;;7.88;97.93
34586;BME280;20816;50.950;11.108;2024-03-22T04:25:06;98784.13;;;7.95;98.14
34586;BME280;20816;50.950;11.108;2024-03-22T04:27:32;98778.00;;;7.99;97.52
34586;BME280;20816;50.950;11.108;2024-03-22T04:29:57;98779.72;;;7.97;98.00
34586;BME280;20816;50.950;11.108;2024-03-22T04:32:23;98776.25;;;7.98;98.02
34586;BME280;20816;50.950;11.108;2024-03-22T04:34:49;98767.47;;;8.04;97.27
34586;BME280;20816;50.950;11.108;2024-03-22T04:37:15;98763.97;;;8.05;97.16
34586;BME280;20816;50.950;11.108;2024-03-22T04:39:40;98755.97;;;8.19;97.51
34586;BME280;20816;50.950;11.108;2024-03-22T04:42:06;98764.69;;;8.21;97.01
34586;BME280;20816;50.950;11.108;2024-03-22T04:44:32;98751.63;;;8.18;97.64
34586;BME280;20816;50.950;11.108;2024-03-22T04:46:58;98752.50;;;8.18;98.05
34586;BME280;20816;50.950;11.108;2024-03-22T04:49:24;98742.84;;;8.22;98.61
34586;BME280;20816;50.950;11.108;2024-03-22T04:51:50;98729.78;;;8.23;99.15
34586;BME280;20816;50.950;11.108;2024-03-22T04:54:15;98735.03;;;8.19;99.69
34586;BME280;20816;50.950;11.108;2024-03-22T04:56:41;98724.25;;;8.51;98.72
34586;BME280;20816;50.950;11.108;2024-03-22T04:59:06;98719.94;;;8.45;98.66
34586;BME280;20816;50.950;11.108;2024-03-22T05:01:32;98714.50;;;8.62;97.92
34586;BME280;20816;50.950;11.108;2024-03-22T05:03:58;98716.13;;;8.70;97.44
34586;BME280;20816;50.950;11.108;2024-03-22T05:06:23;98711.72;;;8.76;97.61
34586;BME280;20816;50.950;11.108;2024-03-22T05:08:49;98709.97;;;8.76;98.02
34586;BME280;20816;50.950;11.108;2024-03-22T05:11:15;98705.56;;;8.80;98.27
34586;BME280;20816;50.950;11.108;2024-03-22T05:13:40;98698.56;;;8.79;98.39
34586;BME280;20816;50.950;11.108;2024-03-22T05:16:07;98702.84;;;8.86;98.40
34586;BME280;20816;50.950;11.108;2024-03-22T05:18:32;98700.19;;;8.87;98.54
34586;BME280;20816;50.950;11.108;2024-03-22T05:20:58;98688.00;;;8.85;98.21
34586;BME280;20816;50.950;11.108;2024-03-22T05:23:24;98700.06;;;8.98;97.59
34586;BME280;20816;50.950;11.108;2024-03-22T05:25:49;98688.94;;;8.81;98.32
34586;BME280;20816;50.950;11.108;2024-03-22T05:28:15;98691.38;;;8.94;98.84
34586;BME280;20816;50.950;11.108;2024-03-22T05:30:41;98689.59;;;8.95;98.46
34586;BME280;20816;50.950;11.108;2024-03-22T05:33:06;98691.97;;;9.15;96.95
34586;BME280;20816;50.950;11.108;2024-03-22T05:35:32;98688.53;;;9.10;97.31
34586;BME280;20816;50.950;11.108;2024-03-22T05:37:58;98691.25;;;9.02;98.14
34586;BME280;20816;50.950;11.108;2024-03-22T05:40:23;98697.44;;;8.98;97.32
34586;BME280;20816;50.950;11.108;2024-03-22T05:42:49;98693.09;;;8.95;97.99
34586;BME280;20816;50.950;11.108;2024-03-22T05:45:14;98689.53;;;9.01;97.57
34586;BME280;20816;50.950;11.108;2024-03-22T05:47:40;98687.78;;;9.02;96.67
34586;BME280;20816;50.950;11.108;2024-03-22T05:50:06;98687.81;;;9.00;97.18
34586;BME280;20816;50.950;11.108;2024-03-22T05:52:33;98691.22;;;9.05;95.97
34586;BME280;20816;50.950;11.108;2024-03-22T05:54:59;98690.38;;;9.03;96.15
34586;BME280;20816;50.950;11.108;2024-03-22T05:57:25;98692.13;;;9.04;95.96
34586;BME280;20816;50.950;11.108;2024-03-22T05:59:50;98699.09;;;9.05;96.00
34586;BME280;20816;50.950;11.108;2024-03-22T06:02:16;98692.03;;;9.09;96.19
34586;BME280;20816;50.950;11.108;2024-03-22T06:04:42;98690.13;;;9.21;95.73
34586;BME280;20816;50.950;11.108;2024-03-22T06:07:08;98689.16;;;9.27;94.87
34586;BME280;20816;50.950;11.108;2024-03-22T06:09:33;98683.78;;;9.35;94.81
34586;BME280;20816;50.950;11.108;2024-03-22T06:12:19;98683.69;;;9.41;93.97
34586;BME280;20816;50.950;11.108;2024-03-22T06:14:47;98685.34;;;9.48;93.17
34586;BME280;20816;50.950;11.108;2024-03-22T06:17:14;98687.00;;;9.52;93.25
34586;BME280;20816;50.950;11.108;2024-03-22T06:19:41;98686.00;;;9.59;93.04
34586;BME280;20816;50.950;11.108;2024-03-22T06:22:06;98670.84;;;9.76;93.04
34586;BME280;20816;50.950;11.108;2024-03-22T06:24:32;98665.50;;;9.82;93.30
34586;BME280;20816;50.950;11.108;2024-03-22T06:26:57;98666.25;;;9.89;93.16
34586;BME280;20816;50.950;11.108;2024-03-22T06:29:23;98665.28;;;9.95;93.14
34586;BME280;20816;50.950;11.108;2024-03-22T06:31:49;98659.91;;;10.01;92.93
34586;BME280;20816;50.950;11.108;2024-03-22T06:34:15;98659.97;;;9.98;93.45
34586;BME280;20816;50.950;11.108;2024-03-22T06:36:41;98658.06;;;10.06;92.80
34586;BME280;20816;50.950;11.108;2024-03-22T06:39:08;98657.28;;;10.02;92.50
34586;BME280;20816;50.950;11.108;2024-03-22T06:41:35;98653.72;;;10.05;92.10
34586;BME280;20816;50.950;11.108;2024-03-22T06:44:01;98648.53;;;10.02;92.06
34586;BME280;20816;50.950;11.108;2024-03-22T06:46:27;98652.75;;;10.09;91.97
34586;BME280;20816;50.950;11.108;2024-03-22T06:48:53;98650.22;;;10.04;92.66
34586;BME280;20816;50.950;11.108;2024-03-22T06:51:19;98651.84;;;10.11;92.72
34586;BME280;20816;50.950;11.108;2024-03-22T06:53:45;98651.88;;;10.10;93.05
34586;BME280;20816;50.950;11.108;2024-03-22T06:56:11;98655.25;;;10.15;92.35
34586;BME280;20816;50.950;11.108;2024-03-22T06:58:40;98656.94;;;10.18;92.42
34586;BME280;20816;50.950;11.108;2024-03-22T07:01:05;98644.59;;;10.24;92.04
34586;BME280;20816;50.950;11.108;2024-03-22T07:03:31;98650.66;;;10.29;92.58
34586;BME280;20816;50.950;11.108;2024-03-22T07:05:57;98648.72;;;10.37;91.29
34586;BME280;20816;50.950;11.108;2024-03-22T07:08:26;98645.28;;;10.34;90.93
34586;BME280;20816;50.950;11.108;2024-03-22T07:10:51;98640.03;;;10.35;89.88
34586;BME280;20816;50.950;11.108;2024-03-22T07:13:19;98642.66;;;10.35;90.38
34586;BME280;20816;50.950;11.108;2024-03-22T07:15:45;98649.31;;;10.52;89.01
34586;BME280;20816;50.950;11.108;2024-03-22T07:18:10;98644.06;;;10.52;88.91
34586;BME280;20816;50.950;11.108;2024-03-22T07:20:36;98642.13;;;10.60;88.96
34586;BME280;20816;50.950;11.108;2024-03-22T07:23:02;98641.16;;;10.64;88.16
34586;BME280;20816;50.950;11.108;2024-03-22T07:25:29;98635.00;;;10.65;88.06
34586;BME280;20816;50.950;11.108;2024-03-22T07:27:55;98642.75;;;10.71;87.65
34586;BME280;20816;50.950;11.108;2024-03-22T07:30:21;98636.47;;;10.78;86.95
34586;BME280;20816;50.950;11.108;2024-03-22T07:32:47;98632.00;;;10.82;86.94
34586;BME280;20816;50.950;11.108;2024-03-22T07:35:13;98626.53;;;10.92;85.96
34586;BME280;20816;50.950;11.108;2024-03-22T07:37:38;98623.81;;;10.95;86.72
34586;BME280;20816;50.950;11.108;2024-03-22T07:40:05;98620.03;;;11.07;85.47
34586;BME280;20816;50.950;11.108;2024-03-22T07:42:31;98618.50;;;10.97;86.25
34586;BME280;20816;50.950;11.108;2024-03-22T07:44:56;98628.63;;;11.14;85.36
34586;BME280;20816;50.950;11.108;2024-03-22T07:47:22;98624.16;;;11.19;84.87
34586;BME280;20816;50.950;11.108;2024-03-22T07:49:48;98619.47;;;11.30;84.62
34586;BME280;20816;50.950;11.108;2024-03-22T07:52:13;98623.91;;;11.28;84.18
34586;BME280;20816;50.950;11.108;2024-03-22T07:54:39;98613.09;;;11.40;83.31
34586;BME280;20816;50.950;11.108;2024-03-22T07:57:05;98614.66;;;11.47;83.12
34586;BME280;20816;50.950;11.108;2024-03-22T07:59:32;98607.28;;;11.62;83.85
34586;BME280;20816;50.950;11.108;2024-03-22T08:01:57;98612.63;;;11.59;83.15
34586;BME280;20816;50.950;11.108;2024-03-22T08:04:24;98609.09;;;11.60;82.98
34586;BME280;20816;50.950;11.108;2024-03-22T08:06:50;98613.44;;;11.61;83.13
34586;BME280;20816;50.950;11.108;2024-03-22T08:09:16;98615.84;;;11.70;83.52
34586;BME280;20816;50.950;11.108;2024-03-22T08:11:44;98613.16;;;11.71;83.93
34586;BME280;20816;50.950;11.108;2024-03-22T08:14:09;98612.03;;;11.83;82.77
34586;BME280;20816;50.950;11.108;2024-03-22T08:16:35;98601.63;;;11.77;83.10
34586;BME280;20816;50.950;11.108;2024-03-22T08:19:01;98608.56;;;11.81;83.19
34586;BME280;20816;50.950;11.108;2024-03-22T08:21:26;98599.50;;;11.91;82.99
34586;BME280;20816;50.950;11.108;2024-03-22T08:23:52;98599.16;;;12.03;82.31
34586;BME280;20816;50.950;11.108;2024-03-22T08:26:18;98602.44;;;12.12;81.84
34586;BME280;20816;50.950;11.108;2024-03-22T08:28:46;98601.31;;;12.20;82.19
34586;BME280;20816;50.950;11.108;2024-03-22T08:31:12;98595.84;;;12.28;81.98
34586;BME280;20816;50.950;11.108;2024-03-22T08:33:38;98585.72;;;12.44;81.50
34586;BME280;20816;50.950;11.108;2024-03-22T08:36:04;98582.63;;;12.59;80.45
34586;BME280;20816;50.950;11.108;2024-03-22T08:38:29;98590.59;;;12.57;80.44
34586;BME280;20816;50.950;11.108;2024-03-22T08:40:55;98583.47;;;12.59;80.70
34586;BME280;20816;50.950;11.108;2024-03-22T08:43:21;98586.22;;;12.56;80.88
34586;BME280;20816;50.950;11.108;2024-03-22T08:45:48;98581.66;;;12.61;79.86
34586;BME280;20816;50.950;11.108;2024-03-22T08:48:13;98579.84;;;12.63;80.15
34586;BME280;20816;50.950;11.108;2024-03-22T08:50:42;98570.94;;;12.68;80.16
34586;BME280;20816;50.950;11.108;2024-03-22T08:53:08;98557.41;;;12.78;80.08
34586;BME280;20816;50.950;11.108;2024-03-22T08:55:33;98572.38;;;12.78;79.53
34586;BME280;20816;50.950;11.108;2024-03-22T08:57:59;98569.53;;;12.84;79.89
34586;BME280;20816;50.950;11.108;2024-03-22T09:00:25;98558.16;;;13.10;78.81
34586;BME280;20816;50.950;11.108;2024-03-22T09:02:50;98562.25;;;13.18;78.65
34586;BME280;20816;50.950;11.108;2024-03-22T09:05:16;98554.53;;;13.65;77.74
34586;BME280;20816;50.950;11.108;2024-03-22T09:07:41;98548.47;;;13.63;77.15
34586;BME280;20816;50.950;11.108;2024-03-22T09:10:07;98550.25;;;13.88;76.40
34586;BME280;20816;50.950;11.108;2024-03-22T09:12:34;98545.59;;;13.94;76.42
34586;BME280;20816;50.950;11.108;2024-03-22T09:15:00;98548.97;;;13.98;74.99
34586;BME280;20816;50.950;11.108;2024-03-22T09:17:26;98548.59;;;13.85;75.51
34586;BME280;20816;50.950;11.108;2024-03-22T09:19:51;98536.84;;;13.92;75.35
34586;BME280;20816;50.950;11.108;2024-03-22T09:22:17;98545.66;;;13.93;75.95
34586;BME280;20816;50.950;11.108;2024-03-22T09:24:42;98535.94;;;13.93;75.81
34586;BME280;20816;50.950;11.108;2024-03-22T09:27:08;98529.97;;;14.12;75.28
34586;BME280;20816;50.950;11.108;2024-03-22T09:29:38;98525.44;;;14.15;75.95
34586;BME280;20816;50.950;11.108;2024-03-22T09:32:04;98528.41;;;14.29;75.78
34586;BME280;20816;50.950;11.108;2024-03-22T09:34:29;98526.88;;;14.47;74.80
34586;BME280;20816;50.950;11.108;2024-03-22T09:36:56;98520.00;;;14.65;73.89
34586;BME280;20816;50.950;11.108;2024-03-22T09:39:22;98512.63;;;14.95;73.29
34586;BME280;20816;50.950;11.108;2024-03-22T09:41:48;98508.34;;;15.13;72.41
34586;BME280;20816;50.950;11.108;2024-03-22T09:44:18;98511.00;;;15.13;72.62
34586;BME280;20816;50.950;11.108;2024-03-22T09:46:44;98506.00;;;15.07;72.39
34586;BME280;20816;50.950;11.108;2024-03-22T09:49:12;98495.47;;;15.26;73.07
34586;BME280;20816;50.950;11.108;2024-03-22T09:51:39;98490.91;;;15.09;73.09
34586;BME280;20816;50.950;11.108;2024-03-22T09:54:05;98493.41;;;15.12;73.78
34586;BME280;20816;50.950;11.108;2024-03-22T09:56:31;98495.28;;;14.88;74.88
34586;BME280;20816;50.950;11.108;2024-03-22T09:58:57;98485.94;;;14.79;74.92
34586;BME280;20816;50.950;11.108;2024-03-22T10:01:26;98477.75;;;14.85;74.50
34586;BME280;20816;50.950;11.108;2024-03-22T10:03:53;98480.53;;;14.82;75.36
34586;BME280;20816;50.950;11.108;2024-03-22T10:06:20;98478.44;;;15.11;75.35
34586;BME280;20816;50.950;11.108;2024-03-22T10:08:46;98472.09;;;15.35;74.67
34586;BME280;20816;50.950;11.108;2024-03-22T10:11:11;98471.19;;;15.36;74.24
34586;BME280;20816;50.950;11.108;2024-03-22T10:13:37;98462.84;;;15.25;74.58
34586;BME280;20816;50.950;11.108;2024-03-22T10:16:03;98460.59;;;15.36;74.50
34586;BME280;20816;50.950;11.108;2024-03-22T10:18:29;98454.69;;;15.30;75.55
34586;BME280;20816;50.950;11.108;2024-03-22T10:21:04;98458.13;;;15.11;76.35
34586;BME280;20816;50.950;11.108;2024-03-22T10:23:30;98458.44;;;15.04;76.36
34586;BME280;20816;50.950;11.108;2024-03-22T10:25:57;98453.09;;;15.05;76.51
34586;BME280;20816;50.950;11.108;2024-03-22T10:28:27;98445.28;;;15.02;76.71
34586;BME280;20816;50.950;11.108;2024-03-22T10:30:53;98443.25;;;15.09;76.57
34586;BME280;20816;50.950;11.108;2024-03-22T10:33:19;98449.38;;;15.30;76.80
34586;BME280;20816;50.950;11.108;2024-03-22T10:35:51;98449.06;;;15.58;76.19
34586;BME280;20816;50.950;11.108;2024-03-22T10:38:18;98454.25;;;15.61;75.67
34586;BME280;20816;50.950;11.108;2024-03-22T10:40:44;98445.38;;;15.62;75.69
34586;BME280;20816;50.950;11.108;2024-03-22T10:43:14;98439.78;;;15.68;75.63
34586;BME280;20816;50.950;11.108;2024-03-22T10:45:40;98443.63;;;15.81;74.14
34586;BME280;20816;50.950;11.108;2024-03-22T10:48:10;98444.47;;;16.19;73.99
34586;BME280;20816;50.950;11.108;2024-03-22T10:50:40;98450.03;;;16.15;73.63
34586;BME280;20816;50.950;11.108;2024-03-22T10:53:18;98447.72;;;16.07;73.68
34586;BME280;20816;50.950;11.108;2024-03-22T10:55:47;98442.00;;;15.97;75.03
34586;BME280;20816;50.950;11.108;2024-03-22T10:58:18;98436.97;;;15.91;74.06
34586;BME280;20816;50.950;11.108;2024-03-22T11:00:46;98443.03;;;15.75;75.28
34586;BME280;20816;50.950;11.108;2024-03-22T11:03:15;98439.63;;;15.91;76.00
34586;BME280;20816;50.950;11.108;2024-03-22T11:05:47;98427.41;;;15.87;75.13
34586;BME280;20816;50.950;11.108;2024-03-22T11:08:26;98419.19;;;15.93;75.53
34586;BME280;20816;50.950;11.108;2024-03-22T11:10:52;98420.06;;;16.13;74.90
34586;BME280;20816;50.950;11.108;2024-03-22T11:13:19;98407.88;;;16.09;73.75
34586;BME280;20816;50.950;11.108;2024-03-22T11:15:49;98397.69;;;16.18;74.18
34586;BME280;20816;50.950;11.108;2024-03-22T11:18:15;98398.53;;;16.19;73.97
34586;BME280;20816;50.950;11.108;2024-03-22T11:20:42;98391.19;;;16.07;73.26
34586;BME280;20816;50.950;11.108;2024-03-22T11:23:08;98391.97;;;15.90;75.21
34586;BME280;20816;50.950;11.108;2024-03-22T11:25:34;98388.66;;;16.04;74.32
34586;BME280;20816;50.950;11.108;2024-03-22T11:28:00;98382.56;;;16.02;73.63
34586;BME280;20816;50.950;11.108;2024-03-22T11:30:32;98383.78;;;15.94;74.15
34586;BME280;20816;50.950;11.108;2024-03-22T11:33:00;98386.13;;;15.63;74.33
34586;BME280;20816;50.950;11.108;2024-03-22T11:35:26;98375.84;;;15.36;77.14
34586;BME280;20816;50.950;11.108;2024-03-22T11:37:52;98364.72;;;15.49;75.74
34586;BME280;20816;50.950;11.108;2024-03-22T11:40:18;98361.25;;;15.67;76.12
34586;BME280;20816;50.950;11.108;2024-03-22T11:42:47;98357.38;;;15.54;76.21
34586;BME280;20816;50.950;11.108;2024-03-22T11:45:15;98357.38;;;15.74;75.12
34586;BME280;20816;50.950;11.108;2024-03-22T11:47:41;98343.25;;;15.92;74.47
34586;BME280;20816;50.950;11.108;2024-03-22T11:50:07;98348.69;;;16.08;74.61
34586;BME280;20816;50.950;11.108;2024-03-22T11:52:35;98337.56;;;16.19;73.12
34586;BME280;20816;50.950;11.108;2024-03-22T11:55:00;98328.22;;;16.29;72.31
34586;BME280;20816;50.950;11.108;2024-03-22T11:57:28;98324.31;;;16.36;72.96
34586;BME280;20816;50.950;11.108;2024-03-22T11:59:59;98324.03;;;16.42;72.90
34586;BME280;20816;50.950;11.108;2024-03-22T12:02:25;98320.13;;;16.49;73.56
34586;BME280;20816;50.950;11.108;2024-03-22T12:04:51;98323.03;;;16.62;72.41
34586;BME280;20816;50.950;11.108;2024-03-22T12:07:17;98317.84;;;16.78;71.03
34586;BME280;20816;50.950;11.108;2024-03-22T12:09:43;98310.56;;;16.81;71.08
34586;BME280;20816;50.950;11.108;2024-03-22T12:12:11;98306.88;;;16.84;70.58
34586;BME280;20816;50.950;11.108;2024-03-22T12:14:37;98313.38;;;16.78;71.31
34586;BME280;20816;50.950;11.108;2024-03-22T12:17:04;98305.47;;;16.77;71.23
34586;BME280;20816;50.950;11.108;2024-03-22T12:19:30;98302.06;;;16.75;70.83
34586;BME280;20816;50.950;11.108;2024-03-22T12:21:55;98294.72;;;16.80;71.33
34586;BME280;20816;50.950;11.108;2024-03-22T12:24:22;98290.78;;;16.52;70.50
34586;BME280;20816;50.950;11.108;2024-03-22T12:26:48;98284.25;;;16.77;71.15
34586;BME280;20816;50.950;11.108;2024-03-22T12:29:15;98277.41;;;16.73;70.64
34586;BME280;20816;50.950;11.108;2024-03-22T12:31:41;98282.75;;;16.89;70.55
34586;BME280;20816;50.950;11.108;2024-03-22T12:34:07;98271.53;;;17.17;70.06
34586;BME280;20816;50.950;11.108;2024-03-22T12:36:32;98255.81;;;17.45;70.14
34586;BME280;20816;50.950;11.108;2024-03-22T12:38:58;98261.69;;;17.34;69.44
34586;BME280;20816;50.950;11.108;2024-03-22T12:41:23;98256.53;;;17.16;68.93
34586;BME280;20816;50.950;11.108;2024-03-22T12:43:49;98258.16;;;17.02;69.23
34586;BME280;20816;50.950;11.108;2024-03-22T12:46:15;98255.41;;;16.71;69.52
34586;BME280;20816;50.950;11.108;2024-03-22T12:48:41;98255.22;;;16.74;69.26